Terminal Aerodrome Forecast
Issued by NWS

Home | Current Version | Previous Version | Text Only | Print | Product List | Glossary On
Versions: 1 2 3 4 5 6 7 8 9 10 11 12 13
000
FTUS44 KJAN 282300
TAFHKS
TAF
KHKS 282327Z 2900/2924 35005KT 6SM -RA BR OVC006
     FM291000 01004KT 2SM -DZ BR OVC002
     FM291600 35005KT P6SM -DZ OVC007
     FM291800 35005KT P6SM OVC015=

USA.gov is the U.S. government's official web portal to all federal, state and local government web resources and services.